Time;durP1;ratioP1;P1;durP2;ratioP2;P2;SDS_P1;SDS_P2;PMS_P1;PMS_P2;Temp;Humidity;BMP_temperature;BMP_pressure;BME280_temperature;BME280_humidity;BME280_pressure;Samples;Min_cycle;Max_cycle;Signal;HPM_P1;HPM_P2
2024/01/01 00:01:56;;;;;;;11.87;6.47;;;9.40;99.90;;;;;;5008049;28;20482;-68
2024/01/01 00:04:26;;;;;;;16.83;7.10;;;9.40;99.90;;;;;;5006932;28;20470;-67
2024/01/01 00:06:54;;;;;;;7.17;5.23;;;9.50;99.90;;;;;;5008491;28;20461;-68
2024/01/01 00:09:21;;;;;;;6.93;4.30;;;9.50;99.90;;;;;;5006425;28;20444;-67
2024/01/01 00:11:47;;;;;;;9.20;4.30;;;9.50;99.90;;;;;;5006883;28;20465;-67
2024/01/01 00:14:14;;;;;;;4.80;4.07;;;9.40;99.90;;;;;;5004496;28;20458;-68
2024/01/01 00:16:41;;;;;;;9.60;5.37;;;9.40;99.90;;;;;;5006718;28;20436;-67
2024/01/01 00:19:11;;;;;;;14.13;6.53;;;9.60;99.90;;;;;;5007314;28;20445;-67
2024/01/01 00:21:38;;;;;;;12.10;5.77;;;9.60;99.90;;;;;;5006192;28;20539;-68
2024/01/01 00:24:07;;;;;;;9.50;4.80;;;9.60;99.90;;;;;;5008371;28;20485;-68
2024/01/01 00:26:33;;;;;;;5.47;3.57;;;9.60;99.90;;;;;;5006972;28;20465;-68
2024/01/01 00:29:00;;;;;;;5.57;4.77;;;9.60;99.90;;;;;;5008520;28;20416;-68
2024/01/01 00:31:27;;;;;;;6.97;4.23;;;9.70;99.90;;;;;;5006364;28;20445;-68
2024/01/01 00:33:53;;;;;;;5.70;4.30;;;9.70;99.90;;;;;;5004926;28;20489;-68
2024/01/01 00:36:20;;;;;;;10.07;4.40;;;9.70;99.90;;;;;;5007652;28;20469;-67
2024/01/01 00:38:47;;;;;;;5.37;3.27;;;9.70;99.90;;;;;;5008180;28;20457;-67
2024/01/01 00:41:16;;;;;;;8.33;4.80;;;9.70;99.90;;;;;;5006528;28;20978;-68
2024/01/01 00:43:44;;;;;;;7.53;2.97;;;9.70;99.90;;;;;;5012093;28;20497;-67
2024/01/01 00:46:10;;;;;;;2.67;2.47;;;9.70;99.90;;;;;;5013526;28;20453;-68
2024/01/01 00:48:37;;;;;;;9.30;3.93;;;9.70;99.90;;;;;;5008357;28;20475;-67
2024/01/01 00:51:05;;;;;;;3.37;2.50;;;9.70;99.90;;;;;;5009861;28;20454;-68
2024/01/01 00:53:33;;;;;;;14.50;4.53;;;9.70;99.90;;;;;;5008131;28;20481;-67
2024/01/01 00:56:00;;;;;;;5.83;2.90;;;9.70;99.90;;;;;;5005866;28;20807;-67
2024/01/01 00:58:29;;;;;;;3.93;2.03;;;9.60;99.90;;;;;;5006150;28;20608;-67
2024/01/01 01:00:57;;;;;;;2.27;1.97;;;9.70;99.90;;;;;;5000272;28;20515;-69
2024/01/01 01:03:24;;;;;;;9.43;3.67;;;9.60;99.90;;;;;;5004578;28;20510;-67
2024/01/01 01:05:50;;;;;;;4.27;3.57;;;9.60;99.90;;;;;;5005517;28;20456;-68
2024/01/01 01:08:17;;;;;;;12.90;3.23;;;9.60;99.90;;;;;;5007855;28;20820;-68
2024/01/01 01:10:44;;;;;;;5.00;2.30;;;9.60;99.90;;;;;;5005482;28;20970;-68
2024/01/01 01:13:11;;;;;;;6.80;3.40;;;9.60;99.90;;;;;;5005616;28;20422;-68
2024/01/01 01:15:39;;;;;;;2.77;2.33;;;9.60;99.90;;;;;;5007386;28;20544;-68
2024/01/01 01:18:06;;;;;;;1.93;1.83;;;9.70;99.90;;;;;;5004347;28;20436;-68
2024/01/01 01:20:33;;;;;;;6.10;3.23;;;9.70;99.90;;;;;;5004329;28;20447;-68
2024/01/01 01:23:00;;;;;;;3.67;2.13;;;9.60;99.90;;;;;;5004333;28;20461;-68
2024/01/01 01:25:26;;;;;;;6.60;4.37;;;9.60;99.90;;;;;;5006799;28;20489;-68
2024/01/01 01:27:53;;;;;;;2.47;1.77;;;9.60;99.90;;;;;;5007302;28;20451;-68
2024/01/01 01:30:20;;;;;;;4.50;3.57;;;9.60;99.90;;;;;;5008216;28;20445;-68
2024/01/01 01:32:48;;;;;;;1.93;1.30;;;9.60;99.90;;;;;;5000341;28;20672;-69
2024/01/01 01:35:14;;;;;;;8.57;2.37;;;9.60;99.90;;;;;;5003573;28;20461;-67
2024/01/01 01:37:41;;;;;;;1.33;1.23;;;9.50;99.90;;;;;;5007133;28;20442;-69
2024/01/01 01:40:09;;;;;;;16.47;3.23;;;9.60;99.90;;;;;;5008817;28;20415;-68
2024/01/01 01:42:36;;;;;;;4.70;2.50;;;9.50;99.90;;;;;;5004950;28;20468;-68
2024/01/01 01:45:03;;;;;;;8.57;2.27;;;9.50;99.90;;;;;;5008038;28;20862;-68
2024/01/01 01:47:30;;;;;;;3.53;2.83;;;9.40;99.90;;;;;;4989184;28;20498;-68
2024/01/01 01:49:58;;;;;;;4.33;1.93;;;9.40;99.90;;;;;;5000930;28;20476;-68
2024/01/01 01:52:25;;;;;;;1.63;1.00;;;9.40;99.90;;;;;;5002113;28;20446;-68
2024/01/01 01:54:54;;;;;;;2.80;1.43;;;9.40;99.90;;;;;;5008362;28;20468;-67
2024/01/01 01:57:21;;;;;;;2.70;1.50;;;9.40;99.90;;;;;;5002143;28;20476;-67
2024/01/01 01:59:48;;;;;;;2.03;1.50;;;9.40;99.90;;;;;;5004969;28;20464;-67
2024/01/01 02:02:17;;;;;;;2.87;1.57;;;9.40;99.90;;;;;;5000837;28;21028;-68
2024/01/01 02:04:44;;;;;;;5.40;2.40;;;9.30;99.90;;;;;;5006282;28;20506;-67
2024/01/01 02:07:12;;;;;;;4.80;2.07;;;9.30;99.90;;;;;;5002606;28;20973;-67
2024/01/01 02:09:39;;;;;;;2.60;1.13;;;9.20;99.90;;;;;;5004411;28;20450;-68
2024/01/01 02:12:08;;;;;;;2.80;1.60;;;9.30;99.90;;;;;;5005245;28;20947;-67
2024/01/01 02:14:34;;;;;;;3.30;1.47;;;9.30;99.90;;;;;;5003022;28;20485;-67
2024/01/01 02:17:01;;;;;;;2.20;1.03;;;9.30;99.90;;;;;;4998944;28;20491;-68
2024/01/01 02:19:28;;;;;;;2.90;1.20;;;9.30;99.90;;;;;;5003585;28;20461;-67
2024/01/01 02:21:56;;;;;;;3.80;1.70;;;9.30;99.90;;;;;;5001495;28;20457;-68
2024/01/01 02:24:24;;;;;;;1.50;1.10;;;9.30;99.90;;;;;;5004208;28;20908;-68
2024/01/01 02:26:51;;;;;;;1.10;0.90;;;9.30;99.90;;;;;;5002096;28;20557;-68
2024/01/01 02:29:18;;;;;;;2.40;1.43;;;9.40;99.90;;;;;;5007517;28;20445;-69
2024/01/01 02:31:46;;;;;;;3.83;1.57;;;9.40;99.90;;;;;;5005381;28;20608;-69
2024/01/01 02:34:13;;;;;;;6.70;1.33;;;9.40;99.90;;;;;;5010777;28;20457;-68
2024/01/01 02:36:40;;;;;;;3.83;1.53;;;9.40;99.90;;;;;;5008015;28;20847;-67
2024/01/01 02:39:09;;;;;;;2.30;1.23;;;9.40;99.90;;;;;;5005728;28;20437;-67
2024/01/01 02:41:38;;;;;;;2.60;1.87;;;9.40;99.90;;;;;;4991451;28;20871;-68
2024/01/01 02:44:06;;;;;;;1.33;1.00;;;9.40;99.90;;;;;;5011406;28;20485;-68
2024/01/01 02:46:33;;;;;;;6.00;1.40;;;9.30;99.90;;;;;;5010281;28;20465;-69
2024/01/01 02:51:34;;;;;;;4.60;1.53;;;8.90;99.90;;;;;;4993179;28;20517;-66
2024/01/01 02:54:01;;;;;;;1.47;1.03;;;8.60;99.90;;;;;;5005168;28;20963;-67
2024/01/01 02:56:29;;;;;;;1.43;1.00;;;8.40;99.90;;;;;;4999441;28;20460;-67
2024/01/01 02:58:57;;;;;;;2.67;1.50;;;8.30;99.90;;;;;;5004262;28;20465;-67
2024/01/01 03:01:23;;;;;;;1.40;1.10;;;8.10;99.90;;;;;;5003688;28;20792;-67
2024/01/01 03:03:50;;;;;;;1.47;1.23;;;8.00;99.90;;;;;;5003545;28;20615;-68
2024/01/01 03:06:18;;;;;;;1.73;0.80;;;7.90;99.90;;;;;;5006668;28;20473;-68
2024/01/01 03:08:45;;;;;;;1.00;0.73;;;7.70;99.90;;;;;;5006050;28;20554;-67
2024/01/01 03:11:13;;;;;;;0.90;0.80;;;7.60;99.90;;;;;;5004201;28;20496;-68
2024/01/01 03:13:39;;;;;;;3.03;1.00;;;7.40;99.90;;;;;;5008053;28;20503;-67
2024/01/01 03:16:08;;;;;;;1.67;1.00;;;7.30;99.90;;;;;;5003162;28;20967;-67
2024/01/01 03:18:34;;;;;;;2.90;0.90;;;7.30;99.90;;;;;;5005958;28;20457;-67
2024/01/01 03:21:01;;;;;;;0.90;0.60;;;7.20;99.90;;;;;;5003948;28;20468;-67
2024/01/01 03:23:27;;;;;;;1.43;1.07;;;7.20;99.90;;;;;;5006807;28;20481;-68
2024/01/01 03:25:54;;;;;;;1.17;0.90;;;7.10;99.90;;;;;;5005564;28;20477;-67
2024/01/01 03:28:21;;;;;;;1.47;1.23;;;7.30;99.90;;;;;;5007893;28;20567;-67
2024/01/01 03:30:48;;;;;;;1.20;1.03;;;7.30;99.90;;;;;;5008963;28;20852;-67
2024/01/01 03:33:16;;;;;;;1.67;1.00;;;7.30;99.90;;;;;;5006743;28;20990;-68
2024/01/01 03:35:43;;;;;;;3.50;1.63;;;7.30;99.90;;;;;;5003883;28;20449;-67
2024/01/01 03:38:09;;;;;;;1.60;1.10;;;7.30;99.90;;;;;;5011611;28;20519;-68
2024/01/01 03:40:36;;;;;;;2.30;1.40;;;7.40;99.90;;;;;;5005451;28;20477;-69
2024/01/01 03:43:03;;;;;;;6.00;2.50;;;7.40;99.90;;;;;;5008644;28;21042;-68
2024/01/01 03:45:30;;;;;;;2.70;2.20;;;7.40;99.90;;;;;;5005866;28;20452;-68
2024/01/01 03:47:56;;;;;;;2.33;0.90;;;7.40;99.90;;;;;;5003450;28;20466;-67
2024/01/01 03:50:24;;;;;;;0.90;0.80;;;7.50;99.90;;;;;;5005714;28;20820;-67
2024/01/01 03:52:51;;;;;;;1.20;0.90;;;7.60;99.90;;;;;;5004886;28;20428;-67
2024/01/01 03:55:18;;;;;;;4.80;1.13;;;7.60;99.90;;;;;;5009882;28;20491;-67
2024/01/01 03:57:45;;;;;;;1.60;0.93;;;7.60;99.90;;;;;;5006986;28;20549;-67
2024/01/01 04:00:13;;;;;;;6.23;1.43;;;7.70;99.90;;;;;;5005203;28;20445;-67
2024/01/01 04:02:40;;;;;;;1.00;0.70;;;7.70;99.90;;;;;;5008604;28;20456;-67
2024/01/01 04:05:09;;;;;;;1.20;0.87;;;7.80;99.90;;;;;;5003956;28;20485;-67
2024/01/01 04:07:37;;;;;;;5.43;1.40;;;7.80;99.90;;;;;;5007047;28;20548;-67
2024/01/01 04:10:05;;;;;;;10.33;1.33;;;7.80;99.90;;;;;;5004947;28;20435;-67
2024/01/01 04:12:33;;;;;;;1.57;1.47;;;7.80;99.90;;;;;;5005102;28;20736;-67
2024/01/01 04:15:00;;;;;;;1.43;1.33;;;7.80;99.90;;;;;;5004838;28;20472;-68
2024/01/01 04:17:26;;;;;;;9.57;1.43;;;7.90;99.90;;;;;;5004358;28;20470;-67
2024/01/01 04:19:53;;;;;;;1.77;1.47;;;7.90;99.90;;;;;;5007057;28;20460;-68
2024/01/01 04:22:20;;;;;;;3.00;0.83;;;8.00;99.90;;;;;;5003515;28;20554;-67
2024/01/01 04:24:48;;;;;;;2.23;1.10;;;8.00;99.90;;;;;;5006867;28;20489;-67
2024/01/01 04:27:15;;;;;;;1.33;1.23;;;8.00;99.90;;;;;;5007651;28;20484;-67
2024/01/01 04:29:42;;;;;;;2.37;1.07;;;8.00;99.90;;;;;;5006957;28;20468;-67
2024/01/01 04:32:09;;;;;;;8.37;1.83;;;8.00;99.90;;;;;;5002198;28;20889;-67
2024/01/01 04:34:36;;;;;;;2.03;1.57;;;8.10;99.90;;;;;;5003084;28;20477;-67
2024/01/01 04:37:03;;;;;;;1.50;1.07;;;8.10;99.90;;;;;;4997554;28;20453;-67
2024/01/01 04:39:30;;;;;;;2.67;1.37;;;8.20;99.90;;;;;;5004546;28;20460;-67
2024/01/01 04:41:58;;;;;;;5.30;1.70;;;8.20;99.90;;;;;;5004443;28;20466;-67
2024/01/01 04:44:25;;;;;;;2.40;1.30;;;8.20;99.90;;;;;;5006276;28;20550;-67
2024/01/01 04:46:52;;;;;;;1.17;0.90;;;8.20;99.90;;;;;;5005190;28;20535;-67
2024/01/01 04:49:19;;;;;;;9.90;2.23;;;8.20;99.90;;;;;;5007753;28;20453;-68
2024/01/01 04:51:46;;;;;;;4.60;2.13;;;8.20;99.90;;;;;;5006887;28;20460;-68
2024/01/01 04:54:12;;;;;;;2.90;1.33;;;8.20;99.90;;;;;;5008198;28;20485;-68
2024/01/01 04:56:39;;;;;;;1.80;1.10;;;8.30;99.90;;;;;;5000838;28;20461;-68
2024/01/01 04:59:07;;;;;;;2.03;1.00;;;8.30;99.90;;;;;;5006541;28;20442;-68
2024/01/01 05:01:34;;;;;;;18.00;2.30;;;8.20;99.90;;;;;;5003080;28;20639;-68
2024/01/01 05:04:01;;;;;;;2.20;0.93;;;8.30;99.90;;;;;;5008576;28;20469;-68
2024/01/01 05:06:27;;;;;;;2.43;1.90;;;8.30;99.90;;;;;;5001969;28;20489;-68
2024/01/01 05:08:54;;;;;;;4.00;1.13;;;8.30;99.90;;;;;;5005702;28;20829;-68
2024/01/01 05:11:21;;;;;;;2.30;2.10;;;8.40;99.90;;;;;;5002653;28;20442;-66
2024/01/01 05:13:48;;;;;;;3.70;2.20;;;8.40;99.90;;;;;;5005525;28;20439;-67
2024/01/01 05:16:16;;;;;;;4.60;1.43;;;8.40;99.90;;;;;;5005310;28;20457;-66
2024/01/01 05:18:43;;;;;;;7.03;1.87;;;8.50;99.90;;;;;;5006026;28;20814;-67
2024/01/01 05:21:09;;;;;;;3.07;1.57;;;8.40;99.90;;;;;;5005269;28;20465;-68
2024/01/01 05:23:36;;;;;;;4.87;1.80;;;8.50;99.90;;;;;;5003152;28;20468;-67
2024/01/01 05:26:04;;;;;;;3.80;1.47;;;8.40;99.90;;;;;;5005418;28;20492;-67
2024/01/01 05:28:31;;;;;;;16.20;1.53;;;8.40;99.90;;;;;;5002767;28;20923;-67
2024/01/01 05:30:57;;;;;;;5.97;1.40;;;8.50;99.90;;;;;;5006467;28;20443;-67
2024/01/01 05:33:26;;;;;;;2.03;1.13;;;8.50;99.90;;;;;;5002231;28;20839;-67
2024/01/01 05:35:52;;;;;;;5.83;1.77;;;8.60;99.90;;;;;;5002571;28;20919;-67
2024/01/01 05:38:19;;;;;;;1.47;1.10;;;8.60;99.90;;;;;;5006347;28;20910;-67
2024/01/01 05:40:46;;;;;;;1.70;0.97;;;8.60;99.90;;;;;;4997309;28;20461;-67
2024/01/01 05:43:12;;;;;;;2.47;1.83;;;8.60;99.90;;;;;;5005876;28;20453;-67
2024/01/01 05:45:39;;;;;;;2.63;1.53;;;8.60;99.90;;;;;;5006255;28;20495;-67
2024/01/01 05:48:07;;;;;;;1.77;1.67;;;8.60;99.90;;;;;;5004237;28;20468;-67
2024/01/01 05:50:35;;;;;;;3.00;1.33;;;8.70;99.90;;;;;;4999329;28;20612;-67
2024/01/01 05:53:02;;;;;;;1.43;1.33;;;8.60;99.90;;;;;;5004084;28;20466;-67
2024/01/01 05:55:28;;;;;;;1.10;0.80;;;8.60;99.90;;;;;;5003000;28;21026;-67
2024/01/01 05:57:55;;;;;;;1.67;1.13;;;8.60;99.90;;;;;;5002793;28;20465;-68
2024/01/01 06:00:22;;;;;;;2.07;0.97;;;8.60;99.90;;;;;;5006631;28;20466;-68
2024/01/01 06:02:49;;;;;;;8.30;2.07;;;8.70;99.90;;;;;;5002303;28;20453;-67
2024/01/01 06:05:15;;;;;;;2.57;1.60;;;8.70;99.90;;;;;;5005782;28;20492;-67
2024/01/01 06:07:43;;;;;;;1.60;1.47;;;8.70;99.90;;;;;;4999551;28;20484;-67
2024/01/01 06:10:10;;;;;;;1.00;0.90;;;8.70;99.90;;;;;;5009563;28;20441;-67
2024/01/01 06:12:37;;;;;;;5.40;1.47;;;8.80;99.90;;;;;;5005991;28;20472;-67
2024/01/01 06:15:05;;;;;;;1.70;1.23;;;8.70;99.90;;;;;;5010758;28;20485;-67
2024/01/01 06:17:32;;;;;;;5.53;1.20;;;8.80;99.90;;;;;;5008312;28;20464;-67
2024/01/01 06:19:58;;;;;;;22.63;2.17;;;8.80;99.90;;;;;;5012218;28;20843;-68
2024/01/01 06:22:25;;;;;;;5.30;1.90;;;8.70;99.90;;;;;;5009402;28;20461;-67
2024/01/01 06:24:53;;;;;;;2.23;1.43;;;8.70;99.90;;;;;;5009435;28;20472;-67
2024/01/01 06:27:20;;;;;;;9.40;1.80;;;8.70;99.90;;;;;;5005632;28;20472;-68
2024/01/01 06:29:47;;;;;;;1.63;1.13;;;8.70;99.90;;;;;;5009076;28;20442;-67
2024/01/01 06:32:13;;;;;;;5.63;1.40;;;8.70;99.90;;;;;;5005643;28;20464;-67
2024/01/01 06:34:40;;;;;;;2.80;1.03;;;8.70;99.90;;;;;;5007990;28;20477;-67
2024/01/01 06:37:07;;;;;;;13.27;2.53;;;8.70;99.90;;;;;;5005437;28;21133;-67
2024/01/01 06:39:34;;;;;;;1.30;1.10;;;8.70;99.90;;;;;;5006410;28;20533;-67
2024/01/01 06:42:03;;;;;;;4.07;1.40;;;8.70;99.90;;;;;;5005410;28;20553;-67
2024/01/01 06:44:29;;;;;;;0.90;0.70;;;8.60;99.90;;;;;;5005529;28;20476;-67
2024/01/01 06:46:56;;;;;;;4.20;1.70;;;8.60;99.90;;;;;;5006962;28;20488;-67
2024/01/01 06:49:23;;;;;;;5.43;2.23;;;8.60;99.90;;;;;;5008374;28;20445;-67
2024/01/01 06:51:51;;;;;;;1.10;0.90;;;8.60;99.90;;;;;;4998593;28;21001;-67
2024/01/01 06:54:18;;;;;;;8.93;2.50;;;8.60;99.90;;;;;;5004888;28;20516;-68
2024/01/01 06:56:45;;;;;;;10.97;1.60;;;8.60;99.90;;;;;;5002908;28;20999;-67
2024/01/01 06:59:14;;;;;;;1.63;1.53;;;8.70;99.90;;;;;;5004067;28;20454;-67
2024/01/01 07:01:41;;;;;;;5.40;1.97;;;8.70;99.90;;;;;;5006880;28;21037;-67
2024/01/01 07:04:08;;;;;;;1.10;0.90;;;8.70;99.90;;;;;;5007302;28;20465;-67
2024/01/01 07:06:35;;;;;;;3.03;1.50;;;8.70;99.90;;;;;;5006999;28;20484;-67
2024/01/01 07:09:02;;;;;;;7.23;1.10;;;8.70;99.90;;;;;;5002566;28;20468;-67
2024/01/01 07:11:29;;;;;;;1.10;1.00;;;8.80;99.90;;;;;;5006953;28;20528;-67
2024/01/01 07:13:56;;;;;;;5.43;1.03;;;8.70;99.90;;;;;;5007113;28;20443;-67
2024/01/01 07:16:24;;;;;;;1.00;0.80;;;8.60;99.90;;;;;;5006738;28;20558;-67
2024/01/01 07:18:50;;;;;;;1.10;0.80;;;8.60;99.90;;;;;;5004932;28;20461;-67
2024/01/01 07:21:17;;;;;;;1.83;1.40;;;8.60;99.90;;;;;;4998949;28;20441;-68
2024/01/01 07:23:44;;;;;;;1.27;0.93;;;8.50;99.90;;;;;;5007176;28;20473;-68
2024/01/01 07:26:11;;;;;;;2.43;1.57;;;8.30;99.90;;;;;;5003491;28;20482;-67
2024/01/01 07:28:38;;;;;;;3.40;1.03;;;8.30;99.90;;;;;;5003966;28;20465;-67
2024/01/01 07:31:05;;;;;;;3.07;2.37;;;8.20;99.90;;;;;;5008941;28;20453;-67
2024/01/01 07:33:33;;;;;;;1.70;1.20;;;8.10;99.90;;;;;;5006785;28;20472;-67
2024/01/01 07:35:59;;;;;;;1.30;1.10;;;8.00;99.90;;;;;;5000233;28;20462;-67
2024/01/01 07:38:26;;;;;;;1.70;1.20;;;8.00;99.90;;;;;;5005886;28;20453;-68
2024/01/01 07:40:53;;;;;;;1.30;1.20;;;8.10;99.90;;;;;;5002379;28;20508;-66
2024/01/01 07:43:21;;;;;;;1.50;0.90;;;8.00;99.90;;;;;;5006638;28;20492;-68
2024/01/01 07:45:47;;;;;;;4.57;1.73;;;8.00;99.90;;;;;;5001252;28;20920;-68
2024/01/01 07:48:14;;;;;;;1.10;0.90;;;8.10;99.90;;;;;;5002432;28;20661;-68
2024/01/01 07:50:43;;;;;;;2.63;1.03;;;8.10;99.90;;;;;;5003152;28;20484;-68
2024/01/01 07:53:09;;;;;;;2.53;1.00;;;8.10;99.90;;;;;;5008142;28;20552;-68
2024/01/01 07:55:36;;;;;;;1.00;0.90;;;8.10;99.90;;;;;;5003344;28;20442;-67
2024/01/01 07:58:05;;;;;;;2.30;0.90;;;8.10;99.90;;;;;;5003798;28;20555;-67
2024/01/01 08:00:32;;;;;;;2.70;1.30;;;8.10;99.90;;;;;;5003967;28;20514;-67
2024/01/01 08:02:58;;;;;;;2.97;2.07;;;8.20;99.90;;;;;;5005505;28;20452;-67
2024/01/01 08:05:25;;;;;;;17.30;2.27;;;8.10;99.90;;;;;;4999894;28;20552;-68
2024/01/01 08:07:57;;;;;;;2.00;1.43;;;8.10;99.90;;;;;;5003026;28;20469;-67
2024/01/01 08:10:24;;;;;;;1.23;0.80;;;8.10;99.90;;;;;;5006426;28;20974;-69
2024/01/01 08:12:51;;;;;;;2.63;1.27;;;8.10;99.90;;;;;;5003152;28;20456;-68
2024/01/01 08:15:18;;;;;;;3.80;1.00;;;8.10;99.90;;;;;;5002219;28;20489;-67
2024/01/01 08:17:44;;;;;;;1.37;1.10;;;8.10;99.90;;;;;;5006215;28;20493;-67
2024/01/01 08:20:12;;;;;;;1.97;1.33;;;8.10;99.90;;;;;;5003058;28;20454;-67
2024/01/01 08:22:38;;;;;;;2.60;1.10;;;8.00;99.90;;;;;;5000914;28;20978;-68
2024/01/01 08:25:07;;;;;;;1.10;0.80;;;8.10;99.90;;;;;;5006903;28;20442;-67
2024/01/01 08:27:34;;;;;;;3.63;1.00;;;8.10;99.90;;;;;;5005133;28;20496;-67
2024/01/01 08:30:01;;;;;;;1.00;0.80;;;8.10;99.90;;;;;;5006791;28;20445;-67
2024/01/01 08:32:28;;;;;;;1.70;1.30;;;8.00;99.90;;;;;;5004953;28;20461;-67
2024/01/01 08:34:54;;;;;;;2.60;1.23;;;8.10;99.90;;;;;;5007126;28;21017;-67
2024/01/01 08:37:21;;;;;;;1.97;0.90;;;8.10;99.90;;;;;;5005873;28;20590;-67
2024/01/01 08:39:48;;;;;;;2.70;1.53;;;8.10;99.90;;;;;;5003763;28;20445;-67
2024/01/01 08:42:16;;;;;;;1.20;1.07;;;8.10;99.90;;;;;;5000990;28;20446;-67
2024/01/01 08:44:43;;;;;;;4.60;1.57;;;8.10;99.90;;;;;;5006176;28;20458;-67
2024/01/01 08:47:10;;;;;;;1.37;0.80;;;8.10;99.90;;;;;;5000664;28;20490;-67
2024/01/01 08:49:36;;;;;;;4.20;1.37;;;8.20;99.90;;;;;;5005209;28;20888;-67
2024/01/01 08:52:04;;;;;;;4.50;1.40;;;8.20;99.90;;;;;;4996802;28;20466;-67
2024/01/01 08:54:30;;;;;;;7.43;1.40;;;8.10;99.90;;;;;;5003983;28;20473;-67
2024/01/01 08:56:57;;;;;;;1.27;1.17;;;8.10;99.90;;;;;;4995947;28;20469;-67
2024/01/01 08:59:25;;;;;;;1.43;0.90;;;8.20;99.90;;;;;;5003453;28;20448;-67
2024/01/01 09:01:52;;;;;;;1.30;0.70;;;8.20;99.90;;;;;;4998594;28;20442;-67
2024/01/01 09:04:19;;;;;;;2.60;0.93;;;8.20;99.90;;;;;;5005841;28;20472;-67
2024/01/01 09:06:45;;;;;;;1.00;0.90;;;8.20;99.90;;;;;;4995791;28;20481;-67
2024/01/01 09:09:12;;;;;;;2.67;1.20;;;8.30;99.90;;;;;;5004524;28;20452;-67
2024/01/01 09:11:39;;;;;;;2.30;1.10;;;8.40;99.90;;;;;;5001088;28;20469;-67
2024/01/01 09:14:06;;;;;;;3.93;1.37;;;8.40;99.90;;;;;;5003417;28;20477;-68
2024/01/01 09:16:34;;;;;;;0.90;0.73;;;8.30;99.90;;;;;;5005436;28;20453;-66
2024/01/01 09:19:00;;;;;;;3.70;1.53;;;8.30;99.90;;;;;;5002593;28;20452;-67
2024/01/01 09:21:27;;;;;;;1.80;1.37;;;8.40;99.90;;;;;;5003044;28;20465;-67
2024/01/01 09:23:57;;;;;;;2.00;1.30;;;8.30;99.90;;;;;;5004570;28;20564;-67
2024/01/01 09:26:25;;;;;;;2.13;1.10;;;8.20;99.90;;;;;;5006319;28;20481;-67
2024/01/01 09:28:51;;;;;;;1.20;1.10;;;8.20;99.90;;;;;;5005598;28;20950;-68
2024/01/01 09:31:18;;;;;;;1.70;1.23;;;8.30;99.90;;;;;;5007219;28;20445;-69
2024/01/01 09:33:46;;;;;;;1.07;0.97;;;8.20;99.90;;;;;;5008851;28;20818;-69
2024/01/01 09:36:14;;;;;;;0.90;0.60;;;8.20;99.90;;;;;;5001641;28;20465;-68
2024/01/01 09:38:43;;;;;;;1.73;0.80;;;8.40;99.90;;;;;;4998783;28;20547;-67
2024/01/01 09:41:11;;;;;;;1.40;1.30;;;8.40;99.90;;;;;;4999419;28;20425;-67
2024/01/01 09:43:38;;;;;;;1.00;0.80;;;8.40;99.90;;;;;;5005134;28;20539;-68
2024/01/01 09:46:06;;;;;;;0.90;0.70;;;8.40;99.90;;;;;;4998457;28;20486;-67
2024/01/01 09:48:32;;;;;;;5.43;2.50;;;8.30;99.90;;;;;;5000345;28;20812;-67
2024/01/01 09:51:03;;;;;;;2.93;1.47;;;8.30;99.90;;;;;;5000440;28;20466;-67
2024/01/01 09:53:31;;;;;;;1.00;0.80;;;8.40;99.90;;;;;;5003366;28;20489;-67
2024/01/01 09:55:58;;;;;;;1.10;1.00;;;8.50;99.90;;;;;;4996427;28;20961;-67
2024/01/01 09:58:25;;;;;;;1.30;1.00;;;8.50;99.90;;;;;;5000353;28;20454;-67
2024/01/01 10:00:51;;;;;;;3.73;1.40;;;8.50;99.90;;;;;;5001683;28;20472;-67
2024/01/01 10:03:18;;;;;;;2.43;1.50;;;8.50;99.90;;;;;;5002018;28;20569;-68
2024/01/01 10:05:48;;;;;;;1.73;0.90;;;8.50;99.90;;;;;;4995444;28;20530;-67
2024/01/01 10:08:16;;;;;;;5.03;1.30;;;8.50;99.90;;;;;;5001394;28;20452;-67
2024/01/01 10:10:44;;;;;;;4.10;1.07;;;8.50;99.90;;;;;;5001889;28;20464;-67
2024/01/01 10:13:13;;;;;;;1.20;1.10;;;8.50;99.90;;;;;;5004101;28;20959;-68
2024/01/01 10:15:41;;;;;;;1.10;1.00;;;8.50;99.90;;;;;;5000795;28;20544;-67
2024/01/01 10:18:10;;;;;;;1.20;0.90;;;8.70;99.90;;;;;;5002644;28;20469;-67
2024/01/01 10:20:37;;;;;;;5.60;1.30;;;8.70;99.90;;;;;;5003892;28;20453;-67
2024/01/01 10:23:27;;;;;;;4.93;1.00;;;8.70;99.90;;;;;;5001248;28;20484;-67
2024/01/01 10:26:03;;;;;;;3.33;1.23;;;8.70;99.90;;;;;;4998640;28;20509;-67
2024/01/01 10:28:31;;;;;;;5.00;1.87;;;8.70;99.90;;;;;;5001076;28;20476;-67
2024/01/01 10:30:58;;;;;;;1.10;0.80;;;8.50;99.90;;;;;;5002520;28;20458;-67
2024/01/01 10:33:26;;;;;;;1.00;0.80;;;8.40;99.90;;;;;;5004157;28;20452;-67
2024/01/01 10:35:54;;;;;;;1.00;0.70;;;8.40;99.90;;;;;;4996562;28;20551;-68
2024/01/01 10:38:21;;;;;;;3.43;1.73;;;8.50;99.90;;;;;;5000561;28;20420;-67
2024/01/01 10:40:51;;;;;;;1.40;1.00;;;8.50;99.90;;;;;;5000415;28;20472;-67
2024/01/01 10:43:20;;;;;;;3.13;1.50;;;8.40;99.90;;;;;;5004165;28;20519;-67
2024/01/01 10:45:48;;;;;;;1.93;1.40;;;8.40;99.90;;;;;;4996821;28;20458;-67
2024/01/01 10:48:15;;;;;;;1.57;1.20;;;8.30;99.90;;;;;;4995754;28;20489;-67
2024/01/01 10:50:53;;;;;;;1.50;1.03;;;8.30;99.90;;;;;;5003936;28;20473;-68
2024/01/01 10:53:29;;;;;;;2.47;1.40;;;8.40;99.90;;;;;;5098410;23;20500;-67
2024/01/01 10:56:06;;;;;;;3.07;1.13;;;8.50;99.90;;;;;;5028740;28;20452;-66
2024/01/01 10:58:47;;;;;;;3.97;1.77;;;8.60;99.90;;;;;;5028602;28;20441;-67
2024/01/01 11:01:18;;;;;;;5.53;2.60;;;8.50;99.90;;;;;;5029955;28;20480;-66
2024/01/01 11:03:47;;;;;;;1.60;1.13;;;8.50;99.90;;;;;;5027686;28;20469;-67
2024/01/01 11:06:26;;;;;;;2.57;1.83;;;8.40;99.90;;;;;;5025713;28;21025;-67
2024/01/01 11:08:53;;;;;;;2.50;1.90;;;8.40;99.90;;;;;;5027139;28;20916;-67
2024/01/01 11:11:30;;;;;;;2.20;1.30;;;8.30;99.90;;;;;;5028295;28;21202;-69
2024/01/01 11:13:58;;;;;;;6.50;2.80;;;8.20;99.90;;;;;;5027772;28;21053;-67
2024/01/01 11:16:26;;;;;;;1.40;1.27;;;8.20;99.90;;;;;;5027349;28;20471;-68
2024/01/01 11:18:53;;;;;;;2.73;0.90;;;8.30;99.90;;;;;;5024717;28;20452;-69
2024/01/01 11:21:27;;;;;;;2.60;1.50;;;8.40;99.90;;;;;;5028565;28;20448;-68
2024/01/01 11:23:54;;;;;;;1.10;0.70;;;8.30;99.90;;;;;;5030388;28;20495;-68
2024/01/01 11:26:34;;;;;;;3.33;1.63;;;8.40;99.90;;;;;;5018838;28;20460;-68
2024/01/01 11:29:06;;;;;;;1.73;1.50;;;8.40;99.90;;;;;;5020333;28;20445;-68
2024/01/01 11:31:34;;;;;;;1.73;1.40;;;8.40;99.90;;;;;;5025875;28;20993;-68
2024/01/01 11:34:03;;;;;;;1.40;1.30;;;8.50;99.90;;;;;;5020127;28;20549;-67
2024/01/01 11:36:30;;;;;;;3.00;1.57;;;8.50;99.90;;;;;;5023311;28;20496;-67
2024/01/01 11:38:58;;;;;;;2.10;1.40;;;8.50;99.90;;;;;;5018744;28;20449;-67
2024/01/01 11:41:25;;;;;;;3.37;1.57;;;8.60;99.90;;;;;;5026159;28;20461;-68
2024/01/01 11:43:54;;;;;;;2.20;1.80;;;8.50;99.90;;;;;;5019477;28;20533;-67
2024/01/01 11:46:27;;;;;;;2.60;1.33;;;8.50;99.90;;;;;;5021749;28;20444;-68
2024/01/01 11:48:58;;;;;;;5.63;2.00;;;8.50;99.90;;;;;;5015656;28;20457;-68
2024/01/01 11:51:25;;;;;;;1.10;1.00;;;8.40;99.90;;;;;;5024655;28;20828;-68
2024/01/01 11:54:09;;;;;;;2.73;2.10;;;8.30;99.90;;;;;;5022787;28;20483;-68
2024/01/01 11:56:36;;;;;;;2.17;1.33;;;8.30;99.90;;;;;;5022717;28;20460;-68
2024/01/01 11:59:06;;;;;;;1.77;1.33;;;8.40;99.90;;;;;;5025553;28;21036;-68
2024/01/01 12:01:33;;;;;;;2.30;1.20;;;8.40;99.90;;;;;;5025576;28;20499;-68
2024/01/01 12:04:02;;;;;;;7.33;1.53;;;8.50;99.90;;;;;;5018793;28;20476;-68
2024/01/01 12:06:30;;;;;;;3.90;1.23;;;8.50;99.90;;;;;;5022406;28;20463;-68
2024/01/01 12:09:05;;;;;;;8.20;1.23;;;8.50;99.90;;;;;;5022933;28;20785;-68
2024/01/01 12:11:32;;;;;;;2.87;1.70;;;8.40;99.90;;;;;;5022191;28;20586;-68
2024/01/01 12:13:59;;;;;;;2.90;1.30;;;8.40;99.90;;;;;;5018047;28;20479;-68
2024/01/01 12:16:29;;;;;;;10.33;2.90;;;8.60;99.90;;;;;;5026638;28;20440;-68
2024/01/01 12:18:57;;;;;;;1.80;1.30;;;8.80;99.90;;;;;;5021281;28;20465;-68
2024/01/01 12:21:24;;;;;;;6.70;2.40;;;8.80;99.90;;;;;;5023972;28;20469;-68
2024/01/01 12:24:02;;;;;;;2.00;1.87;;;9.00;99.90;;;;;;5021099;28;20997;-67
2024/01/01 12:26:31;;;;;;;1.50;1.40;;;9.20;99.90;;;;;;5021585;28;20445;-67
2024/01/01 12:29:14;;;;;;;1.87;1.77;;;9.20;99.90;;;;;;5021926;28;20519;-68
2024/01/01 12:31:43;;;;;;;1.83;1.57;;;9.20;99.90;;;;;;5024127;28;20465;-67
2024/01/01 12:34:14;;;;;;;1.43;1.30;;;9.10;99.90;;;;;;5024896;28;20868;-68
2024/01/01 12:36:42;;;;;;;5.27;1.87;;;9.00;99.90;;;;;;5024559;28;20502;-68
2024/01/01 12:39:08;;;;;;;1.00;0.80;;;9.10;99.90;;;;;;5018489;28;20605;-68
2024/01/01 12:41:36;;;;;;;2.67;1.20;;;9.00;99.90;;;;;;5025813;28;20443;-68
2024/01/01 12:44:03;;;;;;;2.53;1.30;;;9.00;99.90;;;;;;5017252;28;20480;-68
2024/01/01 12:46:30;;;;;;;2.93;2.50;;;9.00;99.90;;;;;;5023905;28;21110;-68
2024/01/01 12:48:59;;;;;;;3.03;1.63;;;9.10;99.90;;;;;;5013241;28;20481;-68
2024/01/01 12:51:27;;;;;;;7.33;1.63;;;9.00;99.90;;;;;;5026003;28;21039;-68
2024/01/01 12:53:57;;;;;;;3.87;1.30;;;9.00;99.90;;;;;;5026785;28;20727;-68
2024/01/01 12:56:24;;;;;;;3.33;1.70;;;8.90;99.90;;;;;;5026017;28;20446;-68
2024/01/01 12:58:51;;;;;;;1.97;1.37;;;8.90;99.90;;;;;;5020773;28;20441;-68
2024/01/01 13:01:18;;;;;;;1.30;1.10;;;8.90;99.90;;;;;;5026090;28;20461;-69